Alto, TX

11:37 AM CDT on August 30, 2014 (GMT -0500)
RAWS RATCLIFF TX US | Change Station
CLOSE
Current Station
Personal Weather Station
Location: Ratcliff, TX
Elevation: 434 ft
Nearby Weather Stations

Elev 434 ft 31.40 °N, 95.14 °W | Updated 35 minutes ago

Overcast
Overcast
79 °F
Feels Like 82 °F
N
2
Wind Variable Wind from ENE
Gusts 6.0 mph

Today
High -- | Low -- °F
--% Chance of Precip.
Yesterday
High -- | Low -- °F
Precip. -- in
6:54 AM 7:46 PM
Waxing Crescent, 23% visible
Pressure 30.01 in
Visibility 10.0 miles
Clouds Scattered Clouds 1800 ft
Mostly Cloudy 3700 ft
Overcast 4300 ft
Heat Index 82 °F
Dew Point 71 °F
Humidity 76%
Rainfall 0.00 in
Snow Depth Not available.
UV 2 out of 12
Pollen 6.00 out of 12
Ozone Good
PM2.5 Good
Flu Activity Not available.
METAR KJSO 301615Z AUTO 00000KT 10SM SCT018 BKN037 OVC043 25/22 A3001 RMK AO2 T02530221

More Conditions Fewer Conditions

Pressure 30.01 in
Visibility 10.0 miles
Clouds Scattered Clouds 1800 ft
Mostly Cloudy 3700 ft
Overcast 4300 ft
Heat Index 82 °F
Dew Point 71 °F
Humidity 76%
Rainfall 0.00 in
Snow Depth Not available.
UV 2 out of 12
Pollen 6.00 out of 12
Ozone Good
PM2.5 Good
Flu Activity Not available.
METAR KJSO 301615Z AUTO 00000KT 10SM SCT018 BKN037 OVC043 25/22 A3001 RMK AO2 T02530221

More Conditions Fewer Conditions

10-Day Weather Forecast

Almanac

Astronomy

Aug. 30, 2014 Rise Set
Actual Time 6:54 AM CDT 7:46 PM CDT
Civil Twilight 6:29 AM CDT 8:11 PM CDT
Nautical Twilight 6:00 AM CDT 8:40 PM CDT
Astronomical Twilight 5:30 AM CDT 9:10 PM CDT
Moon 11:23 AM CDT 10:42 PM CDT
Length of Visible Light 13h 41m
Length of Day
12h 51m
Tomorrow will be 1m 51s shorter.
Waxing Crescent, 23% of the Moon is Illuminated
Today
Waxing Crescent
Sep 2
First Quarter
Sep 8
Full
Sep 15
Last Quarter
Sep 24
New

Today's Extremes

State Highs State Lows

Community

WunderPhotos

Upload Photos

1,748,557 photos uploaded!

WunderBlogs® & News

Nearby

Air Quality

  Air Quality AQ Index Pollutant
Yesterday Good
OZONE
Yesterday Good
PM2.5
Current Good
PM2.5
Current Good
OZONE
Saturday Good
OZONE
Saturday Good
PM10
Sunday Good
OZONE
Sunday Good
PM10
Monday Good
OZONE
Monday Good
PM10
Tuesday Good
OZONE
Tuesday Good
PM10

Snow Depth

Station Depth Elevation
No new snow has been reported.

Earthquake Activity

City Distance Mag. Time & Date
No recent earthquake activity has been reported nearby.
Minimum magnitude displayed is 2.5.

Coastal Water Temperatures

Place Temperature
No Stations Reporting

Nearby Weather Stations